Observations for CAMBRIDGE, United Kingdom (EGSC)

EGSC 241620Z 22012KT 9999 SHRA FEW012 BKN025 14/11 Q1009
EGSC 241550Z 22013KT 9999 -SHRA FEW013 BKN030 15/09 Q1009   
EGSC 241520Z 22012G26KT 180V250 9999 -SHRA SCT025 SCT040 14/08 Q1009
EGSC 241450Z 18009KT 9999 FEW034 SCT040 15/09 Q1010 
EGSC 241420Z 19007KT 9999 FEW035 SCT045 14/09 Q1011 
EGSC 241350Z 20009KT 170V230 9999 -SHRA SCT026 14/09 Q1012  
EGSC 241320Z 19008KT 160V230 9999 FEW018 SCT026 14/09 Q1013 
EGSC 241250Z 19005KT 160V230 9999 FEW018 SCT026 13/09 Q1013 
EGSC 241220Z 21007KT 9999 -SHRA FEW018 SCT024 12/09 Q1014   
EGSC 241150Z 22005KT 9999 -SHRA FEW020 SCT048 12/09 Q1014   
EGSC 241120Z 23009KT 8000 -SHRA FEW018 SCT048 12/09 Q1014   
EGSC 241050Z 23008KT 9999 -SHRA FEW020 12/09 Q1015  
EGSC 241020Z 23010KT 190V250 9999 -SHRA FEW020 12/09 Q1015  
EGSC 240950Z 24009KT 210V270 9999 -SHRA FEW022 13/09 Q1015  
EGSC 240920Z 24010KT 9999 -SHRA FEW022 13/08 Q1015  
EGSC 240850Z 25010KT 9999 -SHRA FEW020 13/07 Q1015  
EGSC 240820Z 26010KT 9999 FEW018 12/07 Q1015
EGSC 240750Z 25009KT 9999 FEW018 12/08 Q1015
EGSC 240720Z 26011KT 9999 FEW018 12/08 Q1014
EGSC 240650Z 26009KT 9999 FEW020 12/08 Q1014